Time;durP1;ratioP1;P1;durP2;ratioP2;P2;SDS_P1;SDS_P2;PMS_P1;PMS_P2;Temp;Humidity;BMP_temperature;BMP_pressure;BME280_temperature;BME280_humidity;BME280_pressure;Samples;Min_cycle;Max_cycle;Signal;HPM_P1;HPM_P2
2021/12/14 00:01:27;;;;;;;18.48;6.80;;;8.90;99.90;;;;;;4976326;28;20301;-75
2021/12/14 00:04:01;;;;;;;21.02;7.53;;;8.90;99.90;;;;;;4993721;28;20023;-75
2021/12/14 00:06:26;;;;;;;19.70;7.05;;;8.90;99.90;;;;;;4994035;28;20105;-75
2021/12/14 00:08:57;;;;;;;17.60;7.10;;;8.90;99.90;;;;;;4993779;28;20100;-75
2021/12/14 00:16:48;;;;;;;16.50;7.53;;;8.90;99.90;;;;;;4994584;28;20039;-76
2021/12/14 00:19:14;;;;;;;;;;;8.90;99.90;;;;;;4976765;28;20530;-76
2021/12/14 00:21:43;;;;;;;16.95;6.78;;;8.90;99.90;;;;;;4994929;28;19905;-76
2021/12/14 00:24:14;;;;;;;20.55;7.38;;;8.90;99.90;;;;;;4979638;28;20085;-76
2021/12/14 00:26:45;;;;;;;16.30;7.05;;;8.90;99.90;;;;;;4997609;28;20137;-76
2021/12/14 00:29:23;;;;;;;15.65;7.05;;;8.90;99.90;;;;;;4979906;28;20035;-77
2021/12/14 00:31:50;;;;;;;17.50;7.82;;;8.90;99.90;;;;;;4997823;28;20034;-76
2021/12/14 00:34:23;;;;;;;18.38;7.53;;;8.90;99.90;;;;;;4979912;28;20114;-76
2021/12/14 00:36:51;;;;;;;17.15;7.53;;;8.90;99.90;;;;;;4997191;28;20033;-76
2021/12/14 00:39:17;;;;;;;15.52;7.20;;;8.90;99.90;;;;;;4997484;28;20035;-75
2021/12/14 00:41:43;;;;;;;14.85;7.20;;;8.90;99.90;;;;;;4997248;28;20022;-75
2021/12/14 00:44:09;;;;;;;19.15;8.07;;;8.90;99.90;;;;;;4997669;28;20446;-77
2021/12/14 00:46:36;;;;;;;18.35;7.30;;;8.90;99.90;;;;;;4997174;28;20387;-76
2021/12/14 00:49:04;;;;;;;18.45;7.25;;;8.90;99.90;;;;;;4996944;28;20029;-75
2021/12/14 00:51:30;;;;;;;17.55;7.80;;;8.90;99.90;;;;;;4980404;28;20034;-77
2021/12/14 00:53:59;;;;;;;15.60;7.43;;;8.90;99.90;;;;;;4997599;28;20034;-75
2021/12/14 00:56:25;;;;;;;17.55;7.20;;;8.90;99.90;;;;;;4997146;28;20564;-76
2021/12/14 00:58:51;;;;;;;20.67;7.38;;;8.80;99.90;;;;;;4979203;28;20166;-76
2021/12/14 01:01:22;;;;;;;20.35;8.13;;;8.80;99.90;;;;;;4996653;28;20061;-77
2021/12/14 01:03:54;;;;;;;17.38;7.32;;;8.90;99.90;;;;;;4997543;28;20105;-76
2021/12/14 01:06:22;;;;;;;18.55;7.95;;;8.90;99.90;;;;;;4997377;28;20018;-77
2021/12/14 01:08:49;;;;;;;14.90;7.15;;;8.80;99.90;;;;;;4996527;28;20026;-76
2021/12/14 01:11:28;;;;;;;17.80;7.18;;;8.80;99.90;;;;;;4997157;28;20487;-76
2021/12/14 01:14:03;;;;;;;16.52;8.10;;;8.80;99.90;;;;;;4979127;28;20030;-77
2021/12/14 01:16:47;;;;;;;16.08;7.43;;;8.90;99.90;;;;;;4996899;28;20041;-75
2021/12/14 01:19:19;;;;;;;19.83;8.52;;;8.90;99.90;;;;;;4978781;28;20030;-75
2021/12/14 01:22:13;;;;;;;16.23;7.22;;;8.90;99.90;;;;;;4978691;28;20089;-75
2021/12/14 01:27:17;;;;;;;17.83;7.28;;;8.90;99.90;;;;;;4996546;28;20459;-76
2021/12/14 01:29:44;;;;;;;19.55;8.98;;;8.80;99.90;;;;;;4978606;28;20087;-74
2021/12/14 01:32:11;;;;;;;17.75;7.43;;;8.80;99.90;;;;;;4995985;28;20394;-75
2021/12/14 01:34:37;;;;;;;18.70;7.65;;;8.80;99.90;;;;;;4995992;28;20026;-75
2021/12/14 01:37:13;;;;;;;23.50;7.63;;;8.90;99.90;;;;;;4978541;28;20027;-76
2021/12/14 01:39:49;;;;;;;16.52;7.47;;;8.90;99.90;;;;;;4978595;28;20027;-75
2021/12/14 01:42:23;;;;;;;19.05;8.48;;;8.80;99.90;;;;;;4995996;28;20056;-75
2021/12/14 01:44:54;;;;;;;16.35;8.15;;;8.80;99.90;;;;;;4978689;28;20491;-76
2021/12/14 01:47:49;;;;;;;21.92;8.60;;;8.70;99.90;;;;;;4996036;28;20419;-75
2021/12/14 01:50:32;;;;;;;18.00;8.40;;;8.70;99.90;;;;;;4995377;28;20023;-76
2021/12/14 01:52:58;;;;;;;15.60;7.68;;;8.80;99.90;;;;;;4995831;28;20030;-77
2021/12/14 01:55:29;;;;;;;20.42;7.63;;;8.70;99.90;;;;;;4995377;28;20029;-76
2021/12/14 01:57:59;;;;;;;18.45;8.02;;;8.70;99.90;;;;;;4977683;28;20023;-75
2021/12/14 02:00:33;;;;;;;20.55;9.10;;;8.70;99.90;;;;;;4995560;28;20026;-76
2021/12/14 02:03:01;;;;;;;19.08;7.93;;;8.70;99.90;;;;;;4995476;28;20434;-76
2021/12/14 02:05:40;;;;;;;20.30;9.13;;;8.70;99.90;;;;;;4995722;28;20014;-75
2021/12/14 02:08:18;;;;;;;19.15;8.93;;;8.70;99.90;;;;;;4995307;28;20109;-76
2021/12/14 02:10:44;;;;;;;15.83;7.03;;;8.70;99.90;;;;;;4995534;28;20036;-76
2021/12/14 02:13:10;;;;;;;21.55;9.27;;;8.70;99.90;;;;;;4995200;28;20191;-76
2021/12/14 02:15:43;;;;;;;19.83;9.43;;;8.70;99.90;;;;;;4977993;28;20073;-76
2021/12/14 02:18:14;;;;;;;23.73;8.98;;;8.70;99.90;;;;;;4995316;28;20027;-76
2021/12/14 02:20:45;;;;;;;20.23;8.85;;;8.70;99.90;;;;;;4977729;28;20018;-76
2021/12/14 02:23:11;;;;;;;21.48;10.00;;;8.70;99.90;;;;;;4995269;28;20034;-76
2021/12/14 02:25:37;;;;;;;22.40;9.77;;;8.70;99.90;;;;;;4995009;28;20506;-76
2021/12/14 02:28:08;;;;;;;20.27;9.18;;;8.70;99.90;;;;;;4995030;28;20101;-76
2021/12/14 02:30:34;;;;;;;21.92;9.13;;;8.70;99.90;;;;;;4995021;28;20026;-76
2021/12/14 02:33:15;;;;;;;21.25;10.25;;;8.60;99.90;;;;;;4994797;28;20431;-76
2021/12/14 02:35:40;;;;;;;21.80;9.23;;;8.60;99.90;;;;;;4994976;28;20484;-76
2021/12/14 02:38:11;;;;;;;22.70;10.20;;;8.70;99.90;;;;;;4977200;28;20153;-76
2021/12/14 02:41:01;;;;;;;22.52;10.82;;;8.70;99.90;;;;;;4995073;28;20022;-76
2021/12/14 02:43:35;;;;;;;21.25;9.25;;;8.60;99.90;;;;;;4994772;28;20498;-76
2021/12/14 02:46:09;;;;;;;25.17;10.15;;;8.60;99.90;;;;;;4994758;28;20117;-76
2021/12/14 02:48:35;;;;;;;24.38;10.80;;;8.60;99.90;;;;;;4994604;28;20100;-76
2021/12/14 02:51:15;;;;;;;23.73;10.55;;;8.50;99.90;;;;;;4994669;28;20495;-75
2021/12/14 02:53:42;;;;;;;29.13;10.60;;;8.60;99.90;;;;;;4976994;28;20061;-75
2021/12/14 02:56:10;;;;;;;23.15;10.57;;;8.60;99.90;;;;;;4994755;28;20033;-76
2021/12/14 02:58:36;;;;;;;23.55;10.93;;;8.70;99.90;;;;;;4977116;28;20487;-76
2021/12/14 03:01:02;;;;;;;22.77;10.27;;;8.60;99.90;;;;;;4994406;28;20032;-76
2021/12/14 03:03:28;;;;;;;24.83;11.10;;;8.60;99.90;;;;;;4994550;28;20385;-76
2021/12/14 03:05:54;;;;;;;23.42;10.52;;;8.60;99.90;;;;;;4994371;28;20018;-76
2021/12/14 03:08:23;;;;;;;25.70;11.55;;;8.60;99.90;;;;;;4976995;28;20022;-76
2021/12/14 03:11:09;;;;;;;27.58;10.77;;;8.60;99.90;;;;;;4976933;28;20073;-76
2021/12/14 03:13:56;;;;;;;23.23;11.20;;;8.60;99.90;;;;;;4994234;28;20019;-75
2021/12/14 03:16:26;;;;;;;24.17;10.90;;;8.60;99.90;;;;;;4993883;28;20034;-76
2021/12/14 03:18:54;;;;;;;24.20;10.23;;;8.50;99.90;;;;;;4976835;28;20037;-75
2021/12/14 03:21:25;;;;;;;26.70;10.30;;;8.60;99.90;;;;;;4994175;28;20034;-76
2021/12/14 03:23:55;;;;;;;29.15;10.70;;;8.60;99.90;;;;;;4976820;28;20499;-76
2021/12/14 03:26:24;;;;;;;23.10;9.25;;;8.60;99.90;;;;;;4994272;28;20029;-76
2021/12/14 03:28:52;;;;;;;25.77;10.50;;;8.60;99.90;;;;;;4994515;28;20034;-77
2021/12/14 03:31:21;;;;;;;24.27;11.00;;;8.60;99.90;;;;;;4994360;28;20483;-76
2021/12/14 03:33:54;;;;;;;24.05;10.05;;;8.60;99.90;;;;;;4994224;28;20034;-77
2021/12/14 03:36:25;;;;;;;22.17;9.10;;;8.60;99.90;;;;;;4994520;28;20057;-76
2021/12/14 03:39:13;;;;;;;25.42;10.75;;;8.60;99.90;;;;;;4976911;28;20030;-76
2021/12/14 03:41:54;;;;;;;26.00;10.65;;;8.50;99.90;;;;;;4994300;28;20018;-77
2021/12/14 03:44:22;;;;;;;28.25;11.20;;;8.50;99.90;;;;;;4976607;28;20449;-77
2021/12/14 03:46:54;;;;;;;23.80;10.93;;;8.50;99.90;;;;;;4994273;28;20061;-77
2021/12/14 03:49:24;;;;;;;21.35;10.02;;;8.50;99.90;;;;;;4994800;28;20080;-77
2021/12/14 03:51:51;;;;;;;23.48;10.73;;;8.50;99.90;;;;;;4994177;28;20042;-77
2021/12/14 03:54:19;;;;;;;22.42;10.27;;;8.50;99.90;;;;;;4976910;28;20090;-77
2021/12/14 03:56:46;;;;;;;24.17;10.20;;;8.50;99.90;;;;;;4996114;28;20038;-76
2021/12/14 03:59:12;;;;;;;29.92;10.98;;;8.50;99.90;;;;;;4998664;28;20022;-77
2021/12/14 04:01:40;;;;;;;26.80;10.77;;;8.50;99.90;;;;;;4981202;28;20018;-76
2021/12/14 04:04:16;;;;;;;27.98;10.60;;;8.50;99.90;;;;;;4998456;28;20049;-77
2021/12/14 04:06:44;;;;;;;30.77;11.82;;;8.50;99.90;;;;;;4981257;28;20102;-77
2021/12/14 04:09:13;;;;;;;28.25;11.25;;;8.50;99.90;;;;;;4981199;28;20084;-77
2021/12/14 04:11:40;;;;;;;22.50;10.85;;;8.40;99.90;;;;;;4998518;28;20022;-77
2021/12/14 04:14:07;;;;;;;25.45;10.32;;;8.40;99.90;;;;;;4980953;28;20027;-77
2021/12/14 04:16:35;;;;;;;21.60;9.63;;;8.40;99.90;;;;;;4980859;28;20387;-77
2021/12/14 04:19:10;;;;;;;20.88;10.18;;;8.40;99.90;;;;;;4980677;28;20034;-77
2021/12/14 04:21:40;;;;;;;22.80;10.35;;;8.40;99.90;;;;;;4980834;28;20073;-77
2021/12/14 04:24:08;;;;;;;19.73;9.80;;;8.40;99.90;;;;;;4998338;28;20035;-76
2021/12/14 04:26:35;;;;;;;23.52;10.27;;;8.50;99.90;;;;;;4980951;28;20022;-76
2021/12/14 04:29:03;;;;;;;22.42;10.75;;;8.40;99.90;;;;;;4998410;28;20430;-77
2021/12/14 04:31:34;;;;;;;20.63;10.07;;;8.40;99.90;;;;;;4998162;28;20033;-77
2021/12/14 04:34:00;;;;;;;23.50;9.82;;;8.40;99.90;;;;;;4998457;28;20037;-77
2021/12/14 04:36:27;;;;;;;23.25;10.02;;;8.40;99.90;;;;;;4998458;28;20030;-77
2021/12/14 04:39:00;;;;;;;20.95;8.68;;;8.40;99.90;;;;;;4997802;28;20026;-77
2021/12/14 04:52:40;;;;;;;19.83;8.50;;;8.40;99.90;;;;;;4998235;28;20034;-77
2021/12/14 04:55:09;;;;;;;19.77;9.10;;;8.30;99.90;;;;;;4998030;28;20041;-76
2021/12/14 04:57:39;;;;;;;25.00;9.68;;;8.30;99.90;;;;;;4981190;28;20026;-76
2021/12/14 05:00:26;;;;;;;20.33;9.07;;;8.40;99.90;;;;;;4980343;28;20442;-77
2021/12/14 05:02:53;;;;;;;22.25;9.40;;;8.30;99.90;;;;;;4997688;28;20053;-77
2021/12/14 05:05:22;;;;;;;21.05;8.60;;;8.30;99.90;;;;;;4997748;28;20022;-77
2021/12/14 05:11:05;;;;;;;18.25;8.65;;;8.40;99.90;;;;;;4998122;28;20517;-77
2021/12/14 05:13:33;;;;;;;19.40;8.75;;;8.30;99.90;;;;;;4997187;28;20034;-77
2021/12/14 05:15:58;;;;;;;18.40;8.85;;;8.30;99.90;;;;;;4979259;28;20026;-77
2021/12/14 05:18:25;;;;;;;17.55;7.13;;;8.30;99.90;;;;;;4979440;28;20395;-77
2021/12/14 05:20:52;;;;;;;23.67;9.10;;;8.30;99.90;;;;;;4996914;28;20034;-77
2021/12/14 05:23:23;;;;;;;22.10;8.07;;;8.30;99.90;;;;;;4979667;28;20498;-76
2021/12/14 05:25:50;;;;;;;21.65;9.43;;;8.30;99.90;;;;;;4997030;28;20051;-77
2021/12/14 05:28:19;;;;;;;19.02;7.85;;;8.30;99.90;;;;;;4996776;28;20026;-77
2021/12/14 05:30:46;;;;;;;15.20;7.05;;;8.20;99.90;;;;;;4979336;28;20391;-77
2021/12/14 05:33:33;;;;;;;19.77;8.60;;;8.20;99.90;;;;;;4996500;28;20090;-77
2021/12/14 05:36:03;;;;;;;18.80;8.57;;;8.20;99.90;;;;;;4996462;28;20145;-77
2021/12/14 05:44:05;;;;;;;16.98;7.57;;;8.20;99.90;;;;;;4968308;28;20023;-77
2021/12/14 05:46:31;;;;;;;16.75;7.93;;;8.20;99.90;;;;;;4996484;28;20030;-77
2021/12/14 05:49:01;;;;;;;16.17;7.35;;;8.30;99.90;;;;;;4996047;28;20065;-76
2021/12/14 05:51:28;;;;;;;17.08;7.07;;;8.30;99.90;;;;;;4978582;28;20023;-77
2021/12/14 05:53:55;;;;;;;17.42;7.35;;;8.30;99.90;;;;;;4996372;28;20026;-77
2021/12/14 05:56:22;;;;;;;17.10;7.28;;;8.20;99.90;;;;;;4978621;28;20372;-76
2021/12/14 05:58:49;;;;;;;15.48;7.60;;;8.20;99.90;;;;;;4996112;28;20388;-77
2021/12/14 06:01:19;;;;;;;15.55;6.90;;;8.20;99.90;;;;;;4996670;28;20014;-77
2021/12/14 06:03:57;;;;;;;15.70;6.93;;;8.20;99.90;;;;;;4996414;28;20023;-77
2021/12/14 06:06:36;;;;;;;16.73;6.65;;;8.20;99.90;;;;;;4996746;28;20022;-77
2021/12/14 06:09:01;;;;;;;;;;;8.30;99.90;;;;;;4995916;28;20053;-76
2021/12/14 06:11:28;;;;;;;20.38;7.65;;;8.20;99.90;;;;;;4977829;28;19929;-76
2021/12/14 06:13:54;;;;;;;19.08;7.78;;;8.20;99.90;;;;;;4995198;28;20537;-76
2021/12/14 06:16:33;;;;;;;13.90;5.93;;;8.20;99.90;;;;;;4977837;28;20061;-76
2021/12/14 06:19:19;;;;;;;17.45;7.30;;;8.20;99.90;;;;;;4994477;28;20050;-76
2021/12/14 06:22:07;;;;;;;14.38;6.65;;;8.30;99.90;;;;;;4995115;28;20032;-75
2021/12/14 06:24:35;;;;;;;17.90;7.40;;;8.30;99.90;;;;;;4994140;28;20092;-76
2021/12/14 06:27:02;;;;;;;;;;;8.30;99.90;;;;;;4978045;28;20050;-75
2021/12/14 06:29:35;;;;;;;16.25;6.72;;;8.20;99.90;;;;;;4995332;28;19973;-76
2021/12/14 06:32:10;;;;;;;17.05;6.78;;;8.30;99.90;;;;;;4977619;28;20060;-76
2021/12/14 06:34:42;;;;;;;15.10;7.60;;;8.20;99.90;;;;;;4977413;28;20018;-75
2021/12/14 06:37:28;;;;;;;16.80;6.63;;;8.20;99.90;;;;;;4995035;28;20084;-76
2021/12/14 06:40:09;;;;;;;17.20;7.15;;;8.30;99.90;;;;;;4977799;28;20081;-76
2021/12/14 06:42:39;;;;;;;17.73;7.57;;;8.20;99.90;;;;;;4996024;28;20097;-77
2021/12/14 06:45:10;;;;;;;16.60;6.47;;;8.20;99.90;;;;;;4995532;28;20023;-76
2021/12/14 06:47:37;;;;;;;17.25;7.30;;;8.20;99.90;;;;;;4995775;28;20529;-75
2021/12/14 06:50:07;;;;;;;16.60;6.82;;;8.30;99.90;;;;;;4995499;28;20399;-77
2021/12/14 06:52:33;;;;;;;14.98;6.75;;;8.20;99.90;;;;;;4995321;28;20074;-76
2021/12/14 06:54:59;;;;;;;14.52;6.53;;;8.20;99.90;;;;;;4978051;28;20031;-77
2021/12/14 06:57:24;;;;;;;16.80;7.60;;;8.30;99.90;;;;;;4995434;28;20109;-77
2021/12/14 06:59:54;;;;;;;16.40;7.10;;;8.30;99.90;;;;;;4995366;28;20037;-77
2021/12/14 07:02:23;;;;;;;15.32;7.05;;;8.30;99.90;;;;;;4995326;28;20430;-76
2021/12/14 07:04:51;;;;;;;14.90;7.20;;;8.30;99.90;;;;;;4995811;28;20022;-77
2021/12/14 07:07:24;;;;;;;16.90;7.68;;;8.30;99.90;;;;;;4977770;28;20080;-76
2021/12/14 07:09:56;;;;;;;22.80;8.75;;;8.20;99.90;;;;;;4977939;28;20096;-76
2021/12/14 07:12:40;;;;;;;18.20;7.70;;;8.30;99.90;;;;;;4994909;28;20483;-77
2021/12/14 07:15:26;;;;;;;17.98;7.80;;;8.30;99.90;;;;;;4995134;28;20522;-77
2021/12/14 07:18:04;;;;;;;19.63;8.43;;;8.30;99.90;;;;;;4994761;28;20376;-75
2021/12/14 07:20:33;;;;;;;17.33;7.47;;;8.20;99.90;;;;;;4977472;28;20057;-76
2021/12/14 07:23:16;;;;;;;20.98;8.18;;;8.20;99.90;;;;;;4977386;28;20541;-76
2021/12/14 07:25:42;;;;;;;16.17;7.35;;;8.30;99.90;;;;;;4994998;28;20019;-77
2021/12/14 07:28:12;;;;;;;19.45;8.50;;;8.30;99.90;;;;;;4994679;28;20058;-76
2021/12/14 07:30:50;;;;;;;19.15;7.72;;;8.20;99.90;;;;;;4994696;28;20101;-76
2021/12/14 07:33:23;;;;;;;15.80;7.35;;;8.30;99.90;;;;;;4994735;28;20476;-77
2021/12/14 07:36:00;;;;;;;18.23;8.13;;;8.30;99.90;;;;;;4977261;28;20053;-76
2021/12/14 07:38:45;;;;;;;17.67;7.63;;;8.30;99.90;;;;;;4994909;28;20061;-77
2021/12/14 07:41:33;;;;;;;18.67;7.95;;;8.30;99.90;;;;;;4994820;28;20027;-76
2021/12/14 07:43:58;;;;;;;21.23;7.60;;;8.30;99.90;;;;;;4977332;28;20057;-76
2021/12/14 07:46:33;;;;;;;17.13;7.63;;;8.30;99.90;;;;;;4976991;28;20496;-77
2021/12/14 07:49:06;;;;;;;19.35;7.88;;;8.30;99.90;;;;;;4977244;28;20121;-77
2021/12/14 07:51:35;;;;;;;17.23;8.23;;;8.20;99.90;;;;;;4994952;28;20483;-76
2021/12/14 07:54:15;;;;;;;19.58;8.05;;;8.20;99.90;;;;;;4977203;28;20061;-77
2021/12/14 07:56:44;;;;;;;17.48;7.28;;;8.20;99.90;;;;;;4995209;28;20125;-76
2021/12/14 07:59:22;;;;;;;20.67;9.82;;;8.30;99.90;;;;;;4976945;28;20022;-76
2021/12/14 08:02:01;;;;;;;17.23;7.95;;;8.30;99.90;;;;;;4977514;28;20475;-77
2021/12/14 08:04:34;;;;;;;21.77;8.75;;;8.30;99.90;;;;;;4976763;28;20157;-77
2021/12/14 08:07:00;;;;;;;20.27;8.27;;;8.30;99.90;;;;;;4994456;28;20053;-76
2021/12/14 08:09:53;;;;;;;19.30;7.97;;;8.30;99.90;;;;;;4976699;28;20030;-76
2021/12/14 08:12:36;;;;;;;20.95;8.93;;;8.30;99.90;;;;;;4972915;28;20043;-77
2021/12/14 08:15:25;;;;;;;20.80;9.30;;;8.30;99.90;;;;;;4977140;28;20037;-76
2021/12/14 08:18:17;;;;;;;18.38;7.85;;;8.30;99.90;;;;;;4976491;28;20058;-76
2021/12/14 08:20:48;;;;;;;18.73;8.27;;;8.30;99.90;;;;;;4989682;28;20050;-76
2021/12/14 08:23:23;;;;;;;18.85;8.15;;;8.30;99.90;;;;;;4994533;28;20034;-76
2021/12/14 08:25:53;;;;;;;23.85;9.00;;;8.40;99.90;;;;;;4995025;28;20030;-76
2021/12/14 08:28:21;;;;;;;17.98;7.70;;;8.40;99.90;;;;;;4994141;28;20030;-76
2021/12/14 08:30:58;;;;;;;17.85;8.07;;;8.40;99.90;;;;;;4994650;28;20045;-76
2021/12/14 08:33:26;;;;;;;17.88;7.22;;;8.40;99.90;;;;;;4994487;28;20364;-75
2021/12/14 08:35:55;;;;;;;20.33;8.63;;;8.40;99.90;;;;;;4977002;28;20029;-76
2021/12/14 08:38:21;;;;;;;22.65;8.60;;;8.40;99.90;;;;;;4994413;28;20025;-75
2021/12/14 08:40:52;;;;;;;21.63;8.88;;;8.50;99.90;;;;;;4976643;28;20023;-76
2021/12/14 08:43:24;;;;;;;19.80;7.78;;;8.50;99.90;;;;;;4997111;28;20109;-75
2021/12/14 08:46:02;;;;;;;19.98;8.68;;;8.60;99.90;;;;;;4980548;28;20372;-76
2021/12/14 08:49:05;;;;;;;22.48;9.00;;;8.60;99.90;;;;;;4980273;28;20077;-76
2021/12/14 08:51:36;;;;;;;18.20;8.07;;;8.60;99.90;;;;;;4993267;28;20034;-76
2021/12/14 08:54:16;;;;;;;20.50;8.43;;;8.60;99.90;;;;;;4997588;28;20042;-76
2021/12/14 08:57:00;;;;;;;20.20;8.02;;;8.50;99.90;;;;;;4997550;28;20019;-75
2021/12/14 08:59:27;;;;;;;18.23;7.85;;;8.50;99.90;;;;;;4980137;28;20041;-76
2021/12/14 09:01:53;;;;;;;22.95;9.35;;;8.50;99.90;;;;;;4997260;28;20020;-76
2021/12/14 09:04:29;;;;;;;21.45;9.32;;;8.50;99.90;;;;;;4997701;28;20033;-76
2021/12/14 09:07:07;;;;;;;22.90;10.02;;;8.60;99.90;;;;;;4997387;28;20420;-76
2021/12/14 09:09:33;;;;;;;24.02;8.48;;;8.60;99.90;;;;;;4997627;28;20022;-75
2021/12/14 09:12:10;;;;;;;20.10;8.93;;;8.60;99.90;;;;;;4979675;28;20536;-75
2021/12/14 09:14:38;;;;;;;21.00;8.73;;;8.60;99.90;;;;;;4997334;28;20031;-76
2021/12/14 09:17:09;;;;;;;22.10;8.57;;;8.60;99.90;;;;;;4979590;28;20479;-75
2021/12/14 09:19:41;;;;;;;22.27;9.52;;;8.60;99.90;;;;;;4997051;28;20034;-76
2021/12/14 09:22:11;;;;;;;19.63;8.77;;;8.60;99.90;;;;;;4996902;28;20476;-76
2021/12/14 09:24:38;;;;;;;23.38;9.38;;;8.60;99.90;;;;;;4996862;28;20077;-77
2021/12/14 09:27:09;;;;;;;21.52;10.27;;;8.60;99.90;;;;;;4979504;28;20018;-76
2021/12/14 09:29:35;;;;;;;22.33;10.27;;;8.60;99.90;;;;;;4979467;28;20500;-76
2021/12/14 09:32:05;;;;;;;24.77;10.05;;;8.60;99.90;;;;;;4996871;28;20030;-76
2021/12/14 09:34:34;;;;;;;24.55;10.05;;;8.50;99.90;;;;;;4979062;28;20436;-75
2021/12/14 09:37:02;;;;;;;27.30;11.52;;;8.50;99.90;;;;;;4996646;28;20030;-75
2021/12/14 09:39:33;;;;;;;27.92;10.13;;;8.60;99.90;;;;;;4979490;28;20365;-76
2021/12/14 09:42:07;;;;;;;27.20;10.05;;;8.60;99.90;;;;;;4996924;28;20053;-76
2021/12/14 09:44:35;;;;;;;30.08;11.57;;;8.60;99.90;;;;;;4996474;28;20087;-76
2021/12/14 09:47:09;;;;;;;28.98;10.02;;;8.50;99.90;;;;;;4996868;28;20026;-76
2021/12/14 09:49:40;;;;;;;29.10;11.80;;;8.50;99.90;;;;;;4996699;28;20157;-75
2021/12/14 09:52:14;;;;;;;27.02;11.20;;;8.50;99.90;;;;;;4979128;28;20029;-75
2021/12/14 09:54:40;;;;;;;31.80;10.50;;;8.50;99.90;;;;;;4995458;28;20027;-75
2021/12/14 09:57:10;;;;;;;26.25;10.57;;;8.50;99.90;;;;;;4978733;28;20372;-76
2021/12/14 09:59:37;;;;;;;26.40;11.80;;;8.50;99.90;;;;;;4996497;28;20387;-75
2021/12/14 10:02:19;;;;;;;25.40;10.40;;;8.50;99.90;;;;;;4996431;28;20099;-76
2021/12/14 10:04:50;;;;;;;28.70;11.38;;;8.50;99.90;;;;;;4996007;28;20150;-76
2021/12/14 10:07:17;;;;;;;26.40;10.35;;;8.60;99.90;;;;;;4996498;28;20494;-76
2021/12/14 10:09:47;;;;;;;26.90;10.40;;;8.60;99.90;;;;;;4978766;28;20018;-76
2021/12/14 10:15:01;;;;;;;29.73;11.70;;;8.70;99.90;;;;;;4996594;28;20382;-76
2021/12/14 10:17:27;;;;;;;26.60;11.48;;;8.70;99.90;;;;;;4978613;28;20034;-76
2021/12/14 10:19:53;;;;;;;28.65;11.25;;;8.70;99.90;;;;;;4978331;28;20368;-76
2021/12/14 10:22:27;;;;;;;31.55;12.18;;;8.70;99.90;;;;;;4995556;28;20110;-76
2021/12/14 10:24:56;;;;;;;34.38;11.02;;;8.80;99.90;;;;;;4995472;28;20030;-75
2021/12/14 10:27:24;;;;;;;22.88;9.35;;;8.80;99.90;;;;;;4995830;28;20028;-76
2021/12/14 10:29:51;;;;;;;29.80;12.07;;;8.80;99.90;;;;;;4995527;28;20514;-76
2021/12/14 10:32:28;;;;;;;28.42;11.30;;;8.90;99.90;;;;;;4996075;28;20037;-76
2021/12/14 10:35:04;;;;;;;29.20;12.20;;;8.90;99.90;;;;;;4995967;28;20026;-76
2021/12/14 10:37:52;;;;;;;35.33;13.15;;;8.90;99.90;;;;;;4978960;28;20514;-77
2021/12/14 10:43:13;;;;;;;32.65;12.52;;;8.90;99.90;;;;;;4995524;28;20041;-76
2021/12/14 10:45:42;;;;;;;36.38;14.07;;;9.00;99.90;;;;;;4995635;28;20101;-76
2021/12/14 10:48:08;;;;;;;34.75;13.90;;;9.00;99.90;;;;;;4977938;28;20022;-75
2021/12/14 10:50:36;;;;;;;42.92;13.85;;;9.00;99.90;;;;;;4978205;28;20022;-76
2021/12/14 10:53:05;;;;;;;34.35;13.90;;;9.00;99.90;;;;;;4978840;28;20463;-76
2021/12/14 10:55:42;;;;;;;32.92;12.95;;;9.10;99.90;;;;;;4995365;28;20391;-76
2021/12/14 10:58:08;;;;;;;38.00;14.65;;;9.10;99.90;;;;;;4995640;28;20026;-75
2021/12/14 11:00:48;;;;;;;36.40;12.52;;;9.00;99.90;;;;;;4995028;28;20030;-76
2021/12/14 11:03:19;;;;;;;37.70;14.88;;;9.00;99.90;;;;;;4994940;28;20026;-76
2021/12/14 11:05:52;;;;;;;35.33;14.15;;;9.10;99.90;;;;;;4976683;28;20018;-76
2021/12/14 11:08:36;;;;;;;36.63;14.32;;;9.10;99.90;;;;;;4994470;28;20387;-76
2021/12/14 11:11:06;;;;;;;34.08;14.05;;;9.20;99.90;;;;;;4978024;28;20160;-77
2021/12/14 11:13:45;;;;;;;35.45;14.55;;;9.20;99.90;;;;;;4977291;28;20026;-76
2021/12/14 11:16:19;;;;;;;33.00;13.35;;;9.20;99.90;;;;;;4977378;28;20027;-75
2021/12/14 11:18:47;;;;;;;35.15;13.73;;;9.20;99.90;;;;;;4977405;28;20026;-78
2021/12/14 11:21:14;;;;;;;35.85;13.88;;;9.20;99.90;;;;;;4977646;28;20058;-75
2021/12/14 11:23:44;;;;;;;35.70;13.90;;;9.20;99.90;;;;;;4995309;28;20594;-77
2021/12/14 11:26:23;;;;;;;35.95;13.80;;;9.20;99.90;;;;;;4977526;28;20042;-76
2021/12/14 11:28:58;;;;;;;38.75;14.02;;;9.30;99.90;;;;;;4994927;28;20030;-76
2021/12/14 11:31:24;;;;;;;32.60;13.93;;;9.20;99.90;;;;;;4995013;28;20027;-77
2021/12/14 11:33:56;;;;;;;39.35;14.57;;;9.20;99.90;;;;;;4995409;28;20033;-77
2021/12/14 11:36:41;;;;;;;41.17;16.38;;;9.20;99.90;;;;;;4995120;28;20394;-76
2021/12/14 11:39:23;;;;;;;36.60;12.93;;;9.20;99.90;;;;;;4978181;28;20034;-77
2021/12/14 11:41:58;;;;;;;37.58;14.02;;;9.20;99.90;;;;;;4995627;28;20018;-77
2021/12/14 11:44:31;;;;;;;44.00;15.80;;;9.10;99.90;;;;;;4995533;28;20463;-77
2021/12/14 11:47:08;;;;;;;32.03;12.75;;;9.10;99.90;;;;;;4995267;28;20022;-77
2021/12/14 11:49:53;;;;;;;33.88;13.07;;;9.10;99.90;;;;;;4995800;28;20034;-77
2021/12/14 11:52:36;;;;;;;34.80;14.20;;;9.10;99.90;;;;;;4994876;28;20046;-75
2021/12/14 11:55:16;;;;;;;40.95;14.93;;;9.10;99.90;;;;;;4994836;28;20034;-76
2021/12/14 11:57:42;;;;;;;40.88;16.38;;;9.20;99.90;;;;;;4977915;28;20022;-77
2021/12/14 12:00:16;;;;;;;40.58;15.13;;;9.20;99.90;;;;;;4995319;28;20498;-77
2021/12/14 12:02:41;;;;;;;38.05;15.07;;;9.20;99.90;;;;;;4977442;28;20079;-76
2021/12/14 12:05:21;;;;;;;37.30;15.50;;;9.20;99.90;;;;;;4994991;28;20010;-77
2021/12/14 12:10:44;;;;;;;44.38;15.65;;;9.20;99.90;;;;;;4995607;28;20093;-75
2021/12/14 12:13:10;;;;;;;41.95;15.20;;;9.20;99.90;;;;;;4977008;28;20030;-75
2021/12/14 12:15:43;;;;;;;39.85;14.82;;;9.30;99.90;;;;;;4977329;28;20042;-74
2021/12/14 12:18:10;;;;;;;36.72;14.65;;;9.30;99.90;;;;;;4979889;28;20427;-75
2021/12/14 12:20:47;;;;;;;40.45;16.23;;;9.20;99.90;;;;;;4998119;28;20110;-77
2021/12/14 12:23:18;;;;;;;42.38;15.73;;;9.20;99.90;;;;;;4998157;28;20098;-77
2021/12/14 12:25:45;;;;;;;35.15;14.48;;;9.20;99.90;;;;;;4980646;28;20025;-76
2021/12/14 12:28:16;;;;;;;41.60;14.65;;;9.20;99.90;;;;;;4980681;28;20033;-77
2021/12/14 12:30:49;;;;;;;36.95;14.57;;;9.20;99.90;;;;;;4998235;28;20069;-77
2021/12/14 12:33:15;;;;;;;39.28;15.38;;;9.10;99.90;;;;;;4980458;28;20045;-75
2021/12/14 12:35:59;;;;;;;35.75;13.98;;;9.10;99.90;;;;;;4998264;28;20031;-76
2021/12/14 12:38:53;;;;;;;38.15;14.18;;;9.10;99.90;;;;;;4998153;28;20030;-77
2021/12/14 12:41:40;;;;;;;41.17;16.60;;;9.10;99.90;;;;;;4998173;28;20026;-77
2021/12/14 12:44:11;;;;;;;32.65;14.43;;;9.10;99.90;;;;;;4980210;28;20018;-76
2021/12/14 12:47:06;;;;;;;39.35;13.63;;;9.10;99.90;;;;;;4997948;28;20030;-77
2021/12/14 12:49:37;;;;;;;38.55;13.55;;;9.10;99.90;;;;;;4960642;28;20034;-77
2021/12/14 12:52:18;;;;;;;36.42;14.13;;;9.10;99.90;;;;;;4980140;28;20065;-75
2021/12/14 12:55:10;;;;;;;40.65;13.48;;;9.10;99.90;;;;;;4980374;28;20033;-78
2021/12/14 12:57:53;;;;;;;34.90;13.65;;;9.10;99.90;;;;;;4980227;28;20030;-77
2021/12/14 13:00:24;;;;;;;34.55;12.90;;;9.10;99.90;;;;;;4997743;28;20459;-77
2021/12/14 13:03:13;;;;;;;34.38;12.73;;;9.10;99.90;;;;;;4997415;28;20030;-76
2021/12/14 13:05:57;;;;;;;33.85;12.13;;;9.20;99.90;;;;;;4979951;28;20513;-78
2021/12/14 13:08:31;;;;;;;29.95;13.15;;;9.20;99.90;;;;;;4997738;28;20113;-75
2021/12/14 13:11:16;;;;;;;29.33;12.85;;;9.30;99.90;;;;;;4979963;28;20507;-74
2021/12/14 13:13:45;;;;;;;29.58;12.85;;;9.30;99.90;;;;;;4997523;28;20565;-76
2021/12/14 13:16:14;;;;;;;33.05;13.38;;;9.30;99.90;;;;;;4979536;28;20018;-77
2021/12/14 13:18:54;;;;;;;32.17;12.40;;;9.30;99.90;;;;;;4996954;28;20037;-77
2021/12/14 13:21:34;;;;;;;29.80;11.20;;;9.30;99.90;;;;;;4997107;28;20014;-76
2021/12/14 13:24:06;;;;;;;26.58;10.73;;;9.40;99.90;;;;;;4996681;28;20041;-76
2021/12/14 13:26:44;;;;;;;25.42;10.55;;;9.30;99.90;;;;;;4979568;28;20030;-76
2021/12/14 13:29:16;;;;;;;24.50;10.82;;;9.30;99.90;;;;;;4978788;28;20034;-76
2021/12/14 13:31:50;;;;;;;28.77;11.32;;;9.30;99.90;;;;;;4979698;28;20383;-77
2021/12/14 13:34:56;;;;;;;26.25;11.02;;;9.30;99.90;;;;;;4979186;28;20026;-76
2021/12/14 13:37:29;;;;;;;26.38;10.70;;;9.40;99.90;;;;;;4898892;29;20032;-77
2021/12/14 13:39:56;;;;;;;26.92;10.57;;;9.40;99.90;;;;;;4898334;29;20032;-76
2021/12/14 13:42:46;;;;;;;23.92;9.90;;;9.40;99.90;;;;;;4950933;28;20031;-77
2021/12/14 13:45:17;;;;;;;26.30;10.18;;;9.40;99.90;;;;;;4979129;28;20118;-77
2021/12/14 13:47:45;;;;;;;28.83;11.40;;;9.40;99.90;;;;;;4979048;28;20020;-76